Other Surface Observations
Issued by NWS

Home | Current Version | Previous Version | Text Only | Print | Product List | Glossary On
Versions: 1 2 3 4 5 6 7 8 9 10 11 12 13 14 15 16 17 18 19 20 21 22 23 24 25 26 27 28 29 30 31 32 33 34 35 36 37 38 39 40 41 42 43 44 45 46 47 48 49 50
000
SXUS54 KWBC 270349
OSOGT
:SHEF ENCODED 6-MINUTE NOS MET DATA
:NATIONAL WATER LEVEL OBSERVATION NETWORK (NWLON)
:TA(AIR TEMP DEG F)  SLP(SEA LEVEL PRESSURE INCHES)
:UD(WIND DIRECTION WHOLE DEGREES) US (WIND SPEED MPH)
:TW(WATER TEMP DEG F) UG(WIND GUSTS MPH) WC(CONDUCTIVITY uMHOS/CM)
:-9999 (MISSING VALUES)
:TIME ZONE IS LST
:PROVIDED BY DOC/NOAA/NOS/CO-OPS, (301) 713-2540
:corms@noaa.gov
.A OBGN6 20190526 ES DH2230/TAIRG    62/UGIRG -9999/PLIRG 29.95/UDIRG -9999/USIRG -9999/TWIRG    54/WCIRG -9999
.A ALXN6 20190526 ES DH2236/TAIRP -9999/UGIRP -9999/PLIRP -9999/UDIRP -9999/USIRP -9999/TWIRP    51/WCIRG -9999
.A ALXN6 20190526 ES DH2230/TAIRG -9999/UGIRG -9999/PLIRG 29.95/UDIRG -9999/USIRG -9999/TWIRG    51/WCIRG -9999
.E AGCM4 20190526 ES DH2230/TAIRG/DIN06/   51/   50
.E AGCM4 20190526 ES DH2230/PLIRG/DIN06/30.06/30.06
.E AGCM4 20190526 ES DH2230/TWIRG/DIN06/   51/   51
.E MBRM4 20190526 ES DH2230/TAIRG/DIN06/   51/   50
.E MBRM4 20190526 ES DH2230/PLIRG/DIN06/30.06/30.06
.E FTGM4 20190526 ES DH2230/TAIRG/DIN06/   48/   48
.E FTGM4 20190526 ES DH2230/PLIRG/DIN06/30.06/30.06
.E FTGM4 20190526 ES DH2230/USIRG/DIN06/    4/    5
.E FTGM4 20190526 ES DH2230/UDIRG/DIN06/  292/  300
.E FTGM4 20190526 ES DH2230/UGIRG/DIN06/    5/    5
.A OSGN6 20190526 ES DH2230/TAIRG    57/UGIRG    14/PLIRG 29.96/UDIRG   260/USIRG    10/TWIRG -9999/WCIRG -9999
.A RCRN6 20190526 ES DH2230/TAIRG    59/UGIRG -9999/PLIRG 29.96/UDIRG -9999/USIRG -9999/TWIRG -9999/WCIRG -9999
.A NIAN6 20190526 ES DH2230/TAIRG    55/UGIRG -9999/PLIRG 30.02/UDIRG -9999/USIRG -9999/TWIRG -9999/WCIRG -9999
.A BUFN6 20190526 ES DH2236/TAIRG    53/UGIRG     4/PLIRG 30.02/UDIRG   167/USIRG     2/TWIRG    58/WCIRG -9999
.A PSTN6 20190526 ES DH2230/TAIRG    55/UGIRG -9999/PLIRG 30.00/UDIRG -9999/USIRG -9999/TWIRG -9999/WCIRG -9999
.A EREP1 20190526 ES DH2236/TAIRP -9999/UGIRP     6/PLIRP -9999/UDIRP   225/USIRP     4/TWIRP -9999/WCIRG -9999
.A EREP1 20190526 ES DH2236/TAIRG -9999/UGIRG     6/PLIRG -9999/UDIRG   225/USIRG     4/TWIRG -9999/WCIRG -9999
.A FAIO1 20190526 ES DH2236/TAIRP -9999/UGIRP -9999/PLIRP -9999/UDIRP -9999/USIRP -9999/TWIRP    63/WCIRG -9999
.A FAIO1 20190526 ES DH2236/TAIRG    57/UGIRG     3/PLIRG 30.03/UDIRG   271/USIRG     2/TWIRG    63/WCIRG -9999
.E CNDO1 20190526 ES DH2230/TAIRG/DIN06/   60/   59
.E CNDO1 20190526 ES DH2230/PLIRG/DIN06/30.03/30.03
.E CNDO1 20190526 ES DH2230/USIRG/DIN06/    3/    2
.E CNDO1 20190526 ES DH2230/UDIRG/DIN06/   61/   54
.E CNDO1 20190526 ES DH2230/UGIRG/DIN06/    5/    4
.E CNDO1 20190526 ES DH2230/TWIRG/DIN06/   59/   59
.A MRHO1 20190526 ES DH2236/TAIRP    59/UGIRP     2/PLIRP 30.04/UDIRP    96/USIRP     0/TWIRP    62/WCIRP -9999
.E MRHO1 20190526 ES DH2230/TAIRG/DIN06/   59/   59
.E MRHO1 20190526 ES DH2230/PLIRG/DIN06/30.04/30.04
.E MRHO1 20190526 ES DH2230/USIRG/DIN06/    1/    0
.E MRHO1 20190526 ES DH2230/UDIRG/DIN06/   75/   96
.E MRHO1 20190526 ES DH2230/UGIRG/DIN06/    3/    2
.E MRHO1 20190526 ES DH2230/TWIRG/DIN06/   62/   62
.E THRO1 20190526 ES DH2230/TAIRG/DIN06/   60/   60
.E THRO1 20190526 ES DH2230/PLIRG/DIN06/30.07/30.07
.E THRO1 20190526 ES DH2230/USIRG/DIN06/    4/    3
.E THRO1 20190526 ES DH2230/UDIRG/DIN06/   52/   51
.E THRO1 20190526 ES DH2230/UGIRG/DIN06/    6/    4
.A HRBM4 20190526 ES DH2236/TAIRP    52/UGIRP     4/PLIRP 30.08/UDIRP   264/USIRP     3/TWIRP    53/WCIRP -9999
.E HRBM4 20190526 ES DH2230/TAIRG/DIN06/   52/   52
.E HRBM4 20190526 ES DH2230/PLIRG/DIN06/30.08/30.08
.E HRBM4 20190526 ES DH2230/USIRG/DIN06/    4/    3
.E HRBM4 20190526 ES DH2230/UDIRG/DIN06/  257/  264
.E HRBM4 20190526 ES DH2230/UGIRG/DIN06/    4/    4
.E HRBM4 20190526 ES DH2230/TWIRG/DIN06/   53/   53
.A LPNM4 20190526 ES DH2236/TAIRG    57/UGIRG     7/PLIRG 30.07/UDIRG   348/USIRG     5/TWIRG    50/WCIRG -9999
.E MACM4 20190526 ES DH2230/TAIRG/DIN06/   50/   51
.E MACM4 20190526 ES DH2230/PLIRG/DIN06/30.12/30.13
.E MACM4 20190526 ES DH2230/USIRG/DIN06/    3/    2
.E MACM4 20190526 ES DH2230/UDIRG/DIN06/  174/  207
.E MACM4 20190526 ES DH2230/UGIRG/DIN06/    4/    3
.E MACM4 20190526 ES DH2230/TWIRG/DIN06/   48/   48
.A DTLM4 20190526 ES DH2236/TAIRP    52/UGIRP    14/PLIRP 30.06/UDIRP   314/USIRP     9/TWIRP    46/WCIRP -9999
.E DTLM4 20190526 ES DH2230/TAIRG/DIN06/   52/   52
.E DTLM4 20190526 ES DH2230/PLIRG/DIN06/30.06/30.06
.E DTLM4 20190526 ES DH2230/USIRG/DIN06/    8/    9
.E DTLM4 20190526 ES DH2230/UDIRG/DIN06/  317/  314
.E DTLM4 20190526 ES DH2230/UGIRG/DIN06/   14/   14
.E DTLM4 20190526 ES DH2230/TWIRG/DIN06/   46/   46
.E RCKM4 20190526 ES DH2230/PLIRG/DIN06/30.11/30.10
.E RCKM4 20190526 ES DH2230/USIRG/DIN06/    2/    2
.E RCKM4 20190526 ES DH2230/UDIRG/DIN06/  259/  291
.E RCKM4 20190526 ES DH2230/UGIRG/DIN06/    3/    4
.E RCKM4 20190526 ES DH2230/TWIRG/DIN06/   47/   47
.A WNEM4 20190526 ES DH2230/TAIRG    48/UGIRG     4/PLIRG 30.09/UDIRG   308/USIRG     2/TWIRG    43/WCIRG -9999
.E LTRM4 20190526 ES DH2230/TAIRG/DIN06/   48/   48
.E LTRM4 20190526 ES DH2230/PLIRG/DIN06/30.09/30.09
.E LTRM4 20190526 ES DH2230/USIRG/DIN06/    1/    1
.E LTRM4 20190526 ES DH2230/UDIRG/DIN06/  201/  197
.E LTRM4 20190526 ES DH2230/UGIRG/DIN06/    3/    2
.E LTRM4 20190526 ES DH2230/TWIRG/DIN06/   42/   42
.A SWPM4 20190526 ES DH2236/TAIRP    45/UGIRP    16/PLIRP 30.06/UDIRP   253/USIRP    13/TWIRP    42/WCIRP -9999
.E SWPM4 20190526 ES DH2230/TAIRG/DIN06/   45/   45
.E SWPM4 20190526 ES DH2230/PLIRG/DIN06/30.06/30.06
.E SWPM4 20190526 ES DH2230/USIRG/DIN06/   14/   13
.E SWPM4 20190526 ES DH2230/UDIRG/DIN06/  254/  253
.E SWPM4 20190526 ES DH2230/UGIRG/DIN06/   15/   16
.E SWPM4 20190526 ES DH2230/TWIRG/DIN06/   42/   42
.A LDTM4 20190526 ES DH2230/TAIRG    55/UGIRG     2/PLIRG 30.06/UDIRG   108/USIRG     1/TWIRG -9999/WCIRG -9999
.A HLNM4 20190526 ES DH2230/TAIRG    52/UGIRG     7/PLIRG 30.06/UDIRG   224/USIRG     5/TWIRG    62/WCIRG -9999
.A CMTI2 20190526 CS DH2136/TAIRP    52/UGIRP     6/PLIRP 30.07/UDIRP   348/USIRP     4/TWIRP -9999/WCIRP -9999
.A CMTI2 20190526 CS DH2136/TAIRG    52/UGIRG     6/PLIRG 30.07/UDIRG   348/USIRG     4/TWIRG -9999/WCIRG -9999
.A KWNW3 20190526 CS DH2136/TAIRP    51/UGIRP     2/PLIRP 30.07/UDIRP   302/USIRP     0/TWIRP -9999/WCIRP -9999
.E KWNW3 20190526 CS DH2130/TAIRG/DIN06/   51/   51
.E KWNW3 20190526 CS DH2130/PLIRG/DIN06/30.07/30.07
.E KWNW3 20190526 CS DH2130/USIRG/DIN06/    0/    0
.E KWNW3 20190526 CS DH2130/UDIRG/DIN06/  299/  302
.E KWNW3 20190526 CS DH2130/UGIRG/DIN06/    1/    2
.A MNMM4 20190526 CS DH2136/TAIRG    55/UGIRG    24/PLIRG 30.09/UDIRG    44/USIRG    20/TWIRG    55/WCIRG -9999
.E PNLM4 20190526 ES DH2230/TAIRG/DIN06/   53/   53
.E PNLM4 20190526 ES DH2230/PLIRG/DIN06/30.12/30.12
.E PNLM4 20190526 ES DH2230/USIRG/DIN06/    5/    2
.E PNLM4 20190526 ES DH2230/UDIRG/DIN06/    7/    2
.E PNLM4 20190526 ES DH2230/UGIRG/DIN06/    7/    5
.E PNLM4 20190526 ES DH2230/TWIRG/DIN06/   54/   54
.E PTIM4 20190526 ES DH2230/TAIRG/DIN06/   45/   46
.E PTIM4 20190526 ES DH2230/PLIRG/DIN06/30.09/30.10
.E PTIM4 20190526 ES DH2230/USIRG/DIN06/    7/    7
.E PTIM4 20190526 ES DH2230/UDIRG/DIN06/  265/  267
.E PTIM4 20190526 ES DH2230/UGIRG/DIN06/   13/   13
.A MCGM4 20190526 ES DH2236/TAIRP    45/UGIRP     6/PLIRP 30.14/UDIRP   322/USIRP     2/TWIRP -9999/WCIRP -9999
.E MCGM4 20190526 ES DH2230/TAIRG/DIN06/   45/   45
.E MCGM4 20190526 ES DH2230/PLIRG/DIN06/30.14/30.14
.E MCGM4 20190526 ES DH2230/USIRG/DIN06/    4/    2
.E MCGM4 20190526 ES DH2230/UDIRG/DIN06/  311/  322
.E MCGM4 20190526 ES DH2230/UGIRG/DIN06/    6/    6
.E DULM5 20190526 CS DH2130/TAIRG/DIN06/   45/   45
.E DULM5 20190526 CS DH2130/PLIRG/DIN06/30.14/30.15
.E DULM5 20190526 CS DH2130/USIRG/DIN06/   11/   11
.E DULM5 20190526 CS DH2130/UDIRG/DIN06/   51/   51
.E DULM5 20190526 CS DH2130/UGIRG/DIN06/   19/   17
.E DULM5 20190526 CS DH2130/TWIRG/DIN06/   48/   48
.E GDMM5 20190526 CS DH2130/TAIRG/DIN06/   45/   45
.E GDMM5 20190526 CS DH2130/PLIRG/DIN06/30.18/30.18
.E GDMM5 20190526 CS DH2130/TWIRG/DIN06/   42/   42



USA.gov is the U.S. government's official web portal to all federal, state and local government web resources and services.